Pleasant Dale, Nebraska
Current Conditions -  °F | °C
As of 9:54 AM on Wednesday 28 Jan 2015 (Local Time) from KLNK Reporting Station
Clear Clear  
Wind Chill: 41°   Ceiling: Unl
Heat Index: 41°   Visibility: 10mi
Dew Point: 31°   Wind: 3mph
Humidity: 67%   Direction: NA
Pressure: 29.81"   Gusts: NA
Location:  40.79°N, 96.93°W
Report Text: KLNK 281554Z VRB03KT 10SM CLR 05/M01 A2981 RMK AO2 SLP101 T00501006
Loading
Personal Weather Stations






























Interactive Weather Map New forecast layout! Learn more

10-Day Weather Forecast

Advertisements
Track Severe Weather on mobile